sensor_id;sensor_type;location;lat;lon;timestamp;P1;P2;P0
62591;PMS5003;48659;41.622;2.276;2023-03-16T00:00:00;13;11;
62591;PMS5003;48659;41.622;2.276;2023-03-16T00:02:28;10;10;
62591;PMS5003;48659;41.622;2.276;2023-03-16T00:04:56;10;8;
62591;PMS5003;48659;41.622;2.276;2023-03-16T00:07:23;15;12;
62591;PMS5003;48659;41.622;2.276;2023-03-16T00:09:51;23;20;
62591;PMS5003;48659;41.622;2.276;2023-03-16T00:12:24;14;12;
62591;PMS5003;48659;41.622;2.276;2023-03-16T00:14:51;15;13;
62591;PMS5003;48659;41.622;2.276;2023-03-16T00:17:19;18;15;
62591;PMS5003;48659;41.622;2.276;2023-03-16T00:19:47;20;16;
62591;PMS5003;48659;41.622;2.276;2023-03-16T00:22:17;13;13;
62591;PMS5003;48659;41.622;2.276;2023-03-16T00:24:45;21;15;
62591;PMS5003;48659;41.622;2.276;2023-03-16T00:27:13;19;17;
62591;PMS5003;48659;41.622;2.276;2023-03-16T00:29:41;25;22;
62591;PMS5003;48659;41.622;2.276;2023-03-16T00:32:10;27;22;
62591;PMS5003;48659;41.622;2.276;2023-03-16T00:34:38;40;28;
62591;PMS5003;48659;41.622;2.276;2023-03-16T00:37:06;34;27;
62591;PMS5003;48659;41.622;2.276;2023-03-16T00:39:33;23;17;
62591;PMS5003;48659;41.622;2.276;2023-03-16T00:42:01;27;18;
62591;PMS5003;48659;41.622;2.276;2023-03-16T00:44:28;30;24;
62591;PMS5003;48659;41.622;2.276;2023-03-16T00:46:55;31;20;
62591;PMS5003;48659;41.622;2.276;2023-03-16T00:49:24;26;23;
62591;PMS5003;48659;41.622;2.276;2023-03-16T00:51:52;37;23;
62591;PMS5003;48659;41.622;2.276;2023-03-16T00:54:24;31;25;
62591;PMS5003;48659;41.622;2.276;2023-03-16T00:56:51;36;24;
62591;PMS5003;48659;41.622;2.276;2023-03-16T00:59:19;35;27;
62591;PMS5003;48659;41.622;2.276;2023-03-16T01:01:47;34;27;
62591;PMS5003;48659;41.622;2.276;2023-03-16T01:04:14;32;26;
62591;PMS5003;48659;41.622;2.276;2023-03-16T01:06:41;33;29;
62591;PMS5003;48659;41.622;2.276;2023-03-16T01:09:09;40;31;
62591;PMS5003;48659;41.622;2.276;2023-03-16T01:11:36;44;26;
62591;PMS5003;48659;41.622;2.276;2023-03-16T01:14:09;28;21;
62591;PMS5003;48659;41.622;2.276;2023-03-16T01:16:37;15;13;
62591;PMS5003;48659;41.622;2.276;2023-03-16T01:19:05;32;28;
62591;PMS5003;48659;41.622;2.276;2023-03-16T01:21:32;24;19;
62591;PMS5003;48659;41.622;2.276;2023-03-16T01:23:59;16;11;
62591;PMS5003;48659;41.622;2.276;2023-03-16T01:26:27;16;13;
62591;PMS5003;48659;41.622;2.276;2023-03-16T01:28:54;15;13;
62591;PMS5003;48659;41.622;2.276;2023-03-16T01:31:21;9;9;
62591;PMS5003;48659;41.622;2.276;2023-03-16T01:33:49;13;12;
62591;PMS5003;48659;41.622;2.276;2023-03-16T01:36:17;13;12;
62591;PMS5003;48659;41.622;2.276;2023-03-16T01:38:46;13;12;
62591;PMS5003;48659;41.622;2.276;2023-03-16T01:41:14;12;12;
62591;PMS5003;48659;41.622;2.276;2023-03-16T01:43:42;10;10;
62591;PMS5003;48659;41.622;2.276;2023-03-16T01:46:13;14;13;
62591;PMS5003;48659;41.622;2.276;2023-03-16T01:48:46;15;14;
62591;PMS5003;48659;41.622;2.276;2023-03-16T01:51:22;26;19;
62591;PMS5003;48659;41.622;2.276;2023-03-16T01:53:55;23;20;
62591;PMS5003;48659;41.622;2.276;2023-03-16T01:56:29;32;24;
62591;PMS5003;48659;41.622;2.276;2023-03-16T01:59:03;31;24;
62591;PMS5003;48659;41.622;2.276;2023-03-16T02:01:41;27;20;
62591;PMS5003;48659;41.622;2.276;2023-03-16T02:04:13;29;24;
62591;PMS5003;48659;41.622;2.276;2023-03-16T02:07:00;26;18;
62591;PMS5003;48659;41.622;2.276;2023-03-16T02:09:29;36;27;
62591;PMS5003;48659;41.622;2.276;2023-03-16T02:11:57;32;25;
62591;PMS5003;48659;41.622;2.276;2023-03-16T02:14:25;26;25;
62591;PMS5003;48659;41.622;2.276;2023-03-16T02:16:53;33;29;
62591;PMS5003;48659;41.622;2.276;2023-03-16T02:19:22;22;21;
62591;PMS5003;48659;41.622;2.276;2023-03-16T02:22:01;17;17;
62591;PMS5003;48659;41.622;2.276;2023-03-16T02:24:31;18;15;
62591;PMS5003;48659;41.622;2.276;2023-03-16T02:26:58;19;18;
62591;PMS5003;48659;41.622;2.276;2023-03-16T02:29:41;22;20;
62591;PMS5003;48659;41.622;2.276;2023-03-16T02:32:19;22;19;
62591;PMS5003;48659;41.622;2.276;2023-03-16T02:34:48;27;24;
62591;PMS5003;48659;41.622;2.276;2023-03-16T02:37:16;16;16;
62591;PMS5003;48659;41.622;2.276;2023-03-16T02:39:43;16;14;
62591;PMS5003;48659;41.622;2.276;2023-03-16T02:42:11;18;14;
62591;PMS5003;48659;41.622;2.276;2023-03-16T02:44:41;21;16;
62591;PMS5003;48659;41.622;2.276;2023-03-16T02:47:14;21;18;
62591;PMS5003;48659;41.622;2.276;2023-03-16T02:49:49;20;19;
62591;PMS5003;48659;41.622;2.276;2023-03-16T02:52:16;17;15;
62591;PMS5003;48659;41.622;2.276;2023-03-16T02:54:43;19;18;
62591;PMS5003;48659;41.622;2.276;2023-03-16T02:57:10;19;16;
62591;PMS5003;48659;41.622;2.276;2023-03-16T02:59:37;16;14;
62591;PMS5003;48659;41.622;2.276;2023-03-16T03:02:05;23;19;
62591;PMS5003;48659;41.622;2.276;2023-03-16T03:04:32;18;15;
62591;PMS5003;48659;41.622;2.276;2023-03-16T03:07:00;16;14;
62591;PMS5003;48659;41.622;2.276;2023-03-16T03:09:28;15;14;
62591;PMS5003;48659;41.622;2.276;2023-03-16T03:11:56;25;21;
62591;PMS5003;48659;41.622;2.276;2023-03-16T03:14:23;20;19;
62591;PMS5003;48659;41.622;2.276;2023-03-16T03:16:50;24;20;
62591;PMS5003;48659;41.622;2.276;2023-03-16T03:23:03;22;16;
62591;PMS5003;48659;41.622;2.276;2023-03-16T03:25:30;21;17;
62591;PMS5003;48659;41.622;2.276;2023-03-16T03:27:58;19;16;
62591;PMS5003;48659;41.622;2.276;2023-03-16T03:30:27;22;19;
62591;PMS5003;48659;41.622;2.276;2023-03-16T03:32:55;31;21;
62591;PMS5003;48659;41.622;2.276;2023-03-16T03:35:22;22;22;
62591;PMS5003;48659;41.622;2.276;2023-03-16T03:37:49;24;21;
62591;PMS5003;48659;41.622;2.276;2023-03-16T03:40:17;25;16;
62591;PMS5003;48659;41.622;2.276;2023-03-16T03:42:46;25;23;
62591;PMS5003;48659;41.622;2.276;2023-03-16T03:45:14;22;21;
62591;PMS5003;48659;41.622;2.276;2023-03-16T03:47:47;27;24;
62591;PMS5003;48659;41.622;2.276;2023-03-16T03:50:15;25;25;
62591;PMS5003;48659;41.622;2.276;2023-03-16T03:52:42;26;20;
62591;PMS5003;48659;41.622;2.276;2023-03-16T03:55:10;22;18;
62591;PMS5003;48659;41.622;2.276;2023-03-16T03:57:39;16;16;
62591;PMS5003;48659;41.622;2.276;2023-03-16T04:00:07;24;21;
62591;PMS5003;48659;41.622;2.276;2023-03-16T04:02:36;15;15;
62591;PMS5003;48659;41.622;2.276;2023-03-16T04:05:03;26;19;
62591;PMS5003;48659;41.622;2.276;2023-03-16T04:07:32;17;17;
62591;PMS5003;48659;41.622;2.276;2023-03-16T04:09:59;20;16;
62591;PMS5003;48659;41.622;2.276;2023-03-16T04:12:26;24;22;
62591;PMS5003;48659;41.622;2.276;2023-03-16T04:14:54;22;20;
62591;PMS5003;48659;41.622;2.276;2023-03-16T04:17:21;25;24;
62591;PMS5003;48659;41.622;2.276;2023-03-16T04:19:49;25;21;
62591;PMS5003;48659;41.622;2.276;2023-03-16T04:22:17;33;26;
62591;PMS5003;48659;41.622;2.276;2023-03-16T04:24:45;21;18;
62591;PMS5003;48659;41.622;2.276;2023-03-16T04:27:13;24;20;
62591;PMS5003;48659;41.622;2.276;2023-03-16T04:29:40;17;16;
62591;PMS5003;48659;41.622;2.276;2023-03-16T04:32:08;22;19;
62591;PMS5003;48659;41.622;2.276;2023-03-16T04:34:36;18;18;
62591;PMS5003;48659;41.622;2.276;2023-03-16T04:37:04;21;16;
62591;PMS5003;48659;41.622;2.276;2023-03-16T04:39:31;27;20;
62591;PMS5003;48659;41.622;2.276;2023-03-16T04:41:58;21;18;
62591;PMS5003;48659;41.622;2.276;2023-03-16T04:44:26;18;13;
62591;PMS5003;48659;41.622;2.276;2023-03-16T04:46:54;19;19;
62591;PMS5003;48659;41.622;2.276;2023-03-16T04:49:21;23;18;
62591;PMS5003;48659;41.622;2.276;2023-03-16T04:51:49;23;17;
62591;PMS5003;48659;41.622;2.276;2023-03-16T04:54:17;22;20;
62591;PMS5003;48659;41.622;2.276;2023-03-16T04:56:45;22;18;
62591;PMS5003;48659;41.622;2.276;2023-03-16T04:59:12;19;19;
62591;PMS5003;48659;41.622;2.276;2023-03-16T05:01:41;23;20;
62591;PMS5003;48659;41.622;2.276;2023-03-16T05:04:09;27;22;
62591;PMS5003;48659;41.622;2.276;2023-03-16T05:06:37;19;19;
62591;PMS5003;48659;41.622;2.276;2023-03-16T05:09:04;33;26;
62591;PMS5003;48659;41.622;2.276;2023-03-16T05:11:32;29;22;
62591;PMS5003;48659;41.622;2.276;2023-03-16T05:13:59;30;23;
62591;PMS5003;48659;41.622;2.276;2023-03-16T05:16:27;30;22;
62591;PMS5003;48659;41.622;2.276;2023-03-16T05:18:56;26;25;
62591;PMS5003;48659;41.622;2.276;2023-03-16T05:21:24;28;22;
62591;PMS5003;48659;41.622;2.276;2023-03-16T05:23:52;32;25;
62591;PMS5003;48659;41.622;2.276;2023-03-16T05:26:20;30;26;
62591;PMS5003;48659;41.622;2.276;2023-03-16T05:28:47;30;25;
62591;PMS5003;48659;41.622;2.276;2023-03-16T05:31:15;41;34;
62591;PMS5003;48659;41.622;2.276;2023-03-16T05:33:42;50;41;
62591;PMS5003;48659;41.622;2.276;2023-03-16T05:36:10;55;46;
62591;PMS5003;48659;41.622;2.276;2023-03-16T05:38:38;54;42;
62591;PMS5003;48659;41.622;2.276;2023-03-16T05:41:06;39;37;
62591;PMS5003;48659;41.622;2.276;2023-03-16T05:43:33;43;34;
62591;PMS5003;48659;41.622;2.276;2023-03-16T05:46:01;42;37;
62591;PMS5003;48659;41.622;2.276;2023-03-16T05:48:29;46;42;
62591;PMS5003;48659;41.622;2.276;2023-03-16T05:50:57;43;32;
62591;PMS5003;48659;41.622;2.276;2023-03-16T05:53:24;50;39;
62591;PMS5003;48659;41.622;2.276;2023-03-16T05:55:52;42;34;
62591;PMS5003;48659;41.622;2.276;2023-03-16T05:58:20;53;42;
62591;PMS5003;48659;41.622;2.276;2023-03-16T06:00:47;55;49;
62591;PMS5003;48659;41.622;2.276;2023-03-16T06:03:15;43;36;
62591;PMS5003;48659;41.622;2.276;2023-03-16T06:05:46;43;32;
62591;PMS5003;48659;41.622;2.276;2023-03-16T06:08:15;45;38;
62591;PMS5003;48659;41.622;2.276;2023-03-16T06:10:42;42;32;
62591;PMS5003;48659;41.622;2.276;2023-03-16T06:13:11;44;39;
62591;PMS5003;48659;41.622;2.276;2023-03-16T06:15:39;39;36;
62591;PMS5003;48659;41.622;2.276;2023-03-16T06:18:06;46;36;
62591;PMS5003;48659;41.622;2.276;2023-03-16T06:20:33;39;33;
62591;PMS5003;48659;41.622;2.276;2023-03-16T06:23:01;50;39;
62591;PMS5003;48659;41.622;2.276;2023-03-16T06:25:28;53;43;
62591;PMS5003;48659;41.622;2.276;2023-03-16T06:27:56;56;44;
62591;PMS5003;48659;41.622;2.276;2023-03-16T06:30:24;46;35;
62591;PMS5003;48659;41.622;2.276;2023-03-16T06:32:52;56;40;
62591;PMS5003;48659;41.622;2.276;2023-03-16T06:35:19;39;37;
62591;PMS5003;48659;41.622;2.276;2023-03-16T06:37:46;42;34;
62591;PMS5003;48659;41.622;2.276;2023-03-16T06:40:13;45;38;
62591;PMS5003;48659;41.622;2.276;2023-03-16T06:42:41;49;37;
62591;PMS5003;48659;41.622;2.276;2023-03-16T06:45:09;45;36;
62591;PMS5003;48659;41.622;2.276;2023-03-16T06:47:37;49;36;
62591;PMS5003;48659;41.622;2.276;2023-03-16T06:50:05;47;39;
62591;PMS5003;48659;41.622;2.276;2023-03-16T06:52:32;45;40;
62591;PMS5003;48659;41.622;2.276;2023-03-16T06:55:00;46;37;
62591;PMS5003;48659;41.622;2.276;2023-03-16T06:57:28;48;39;
62591;PMS5003;48659;41.622;2.276;2023-03-16T06:59:55;41;34;
62591;PMS5003;48659;41.622;2.276;2023-03-16T07:02:23;47;40;
62591;PMS5003;48659;41.622;2.276;2023-03-16T07:04:50;45;40;
62591;PMS5003;48659;41.622;2.276;2023-03-16T07:07:19;44;36;
62591;PMS5003;48659;41.622;2.276;2023-03-16T07:09:46;43;38;
62591;PMS5003;48659;41.622;2.276;2023-03-16T07:12:13;38;34;
62591;PMS5003;48659;41.622;2.276;2023-03-16T07:14:41;44;37;
62591;PMS5003;48659;41.622;2.276;2023-03-16T07:17:09;40;38;
62591;PMS5003;48659;41.622;2.276;2023-03-16T07:19:36;42;37;
62591;PMS5003;48659;41.622;2.276;2023-03-16T07:22:04;42;41;
62591;PMS5003;48659;41.622;2.276;2023-03-16T07:24:32;40;39;
62591;PMS5003;48659;41.622;2.276;2023-03-16T07:26:59;45;41;
62591;PMS5003;48659;41.622;2.276;2023-03-16T07:29:27;42;37;
62591;PMS5003;48659;41.622;2.276;2023-03-16T07:31:54;40;34;
62591;PMS5003;48659;41.622;2.276;2023-03-16T07:34:22;39;36;
62591;PMS5003;48659;41.622;2.276;2023-03-16T07:36:49;48;41;
62591;PMS5003;48659;41.622;2.276;2023-03-16T07:39:16;41;39;
62591;PMS5003;48659;41.622;2.276;2023-03-16T07:41:44;43;40;
62591;PMS5003;48659;41.622;2.276;2023-03-16T07:44:11;51;42;
62591;PMS5003;48659;41.622;2.276;2023-03-16T07:46:40;46;38;
62591;PMS5003;48659;41.622;2.276;2023-03-16T07:49:08;40;38;
62591;PMS5003;48659;41.622;2.276;2023-03-16T07:51:37;45;41;
62591;PMS5003;48659;41.622;2.276;2023-03-16T07:54:06;49;42;
62591;PMS5003;48659;41.622;2.276;2023-03-16T07:56:34;47;39;
62591;PMS5003;48659;41.622;2.276;2023-03-16T07:59:02;46;43;
62591;PMS5003;48659;41.622;2.276;2023-03-16T08:01:29;44;39;
62591;PMS5003;48659;41.622;2.276;2023-03-16T08:03:56;43;42;
62591;PMS5003;48659;41.622;2.276;2023-03-16T08:06:24;47;44;
62591;PMS5003;48659;41.622;2.276;2023-03-16T08:08:51;50;47;
62591;PMS5003;48659;41.622;2.276;2023-03-16T08:11:19;51;40;
62591;PMS5003;48659;41.622;2.276;2023-03-16T08:13:46;52;49;
62591;PMS5003;48659;41.622;2.276;2023-03-16T08:16:14;57;49;
62591;PMS5003;48659;41.622;2.276;2023-03-16T08:18:47;58;56;
62591;PMS5003;48659;41.622;2.276;2023-03-16T08:21:15;55;52;
62591;PMS5003;48659;41.622;2.276;2023-03-16T08:23:42;51;48;
62591;PMS5003;48659;41.622;2.276;2023-03-16T08:26:10;50;48;
62591;PMS5003;48659;41.622;2.276;2023-03-16T08:28:38;54;45;
62591;PMS5003;48659;41.622;2.276;2023-03-16T08:31:06;48;42;
62591;PMS5003;48659;41.622;2.276;2023-03-16T08:33:33;41;37;
62591;PMS5003;48659;41.622;2.276;2023-03-16T08:36:00;44;40;
62591;PMS5003;48659;41.622;2.276;2023-03-16T08:38:30;41;32;
62591;PMS5003;48659;41.622;2.276;2023-03-16T08:40:57;39;35;
62591;PMS5003;48659;41.622;2.276;2023-03-16T08:43:24;40;34;
62591;PMS5003;48659;41.622;2.276;2023-03-16T08:45:51;45;40;
62591;PMS5003;48659;41.622;2.276;2023-03-16T08:48:19;42;38;
62591;PMS5003;48659;41.622;2.276;2023-03-16T08:50:46;33;30;
62591;PMS5003;48659;41.622;2.276;2023-03-16T08:53:14;43;36;
62591;PMS5003;48659;41.622;2.276;2023-03-16T08:55:43;40;40;
62591;PMS5003;48659;41.622;2.276;2023-03-16T08:58:11;39;38;
62591;PMS5003;48659;41.622;2.276;2023-03-16T09:00:39;46;38;
62591;PMS5003;48659;41.622;2.276;2023-03-16T09:03:07;44;38;
62591;PMS5003;48659;41.622;2.276;2023-03-16T09:05:35;46;38;
62591;PMS5003;48659;41.622;2.276;2023-03-16T09:08:02;43;39;
62591;PMS5003;48659;41.622;2.276;2023-03-16T09:10:29;38;35;
62591;PMS5003;48659;41.622;2.276;2023-03-16T09:12:57;42;32;
62591;PMS5003;48659;41.622;2.276;2023-03-16T09:15:26;44;40;
62591;PMS5003;48659;41.622;2.276;2023-03-16T09:17:53;46;38;
62591;PMS5003;48659;41.622;2.276;2023-03-16T09:20:20;47;44;
62591;PMS5003;48659;41.622;2.276;2023-03-16T09:22:47;48;40;
62591;PMS5003;48659;41.622;2.276;2023-03-16T09:25:15;47;43;
62591;PMS5003;48659;41.622;2.276;2023-03-16T09:27:43;45;40;
62591;PMS5003;48659;41.622;2.276;2023-03-16T09:30:10;42;38;
62591;PMS5003;48659;41.622;2.276;2023-03-16T09:32:39;43;43;
62591;PMS5003;48659;41.622;2.276;2023-03-16T09:35:07;46;41;
62591;PMS5003;48659;41.622;2.276;2023-03-16T09:37:35;37;34;
62591;PMS5003;48659;41.622;2.276;2023-03-16T09:40:02;43;38;
62591;PMS5003;48659;41.622;2.276;2023-03-16T09:42:32;27;23;
62591;PMS5003;48659;41.622;2.276;2023-03-16T09:45:05;20;18;
62591;PMS5003;48659;41.622;2.276;2023-03-16T09:47:41;19;19;
62591;PMS5003;48659;41.622;2.276;2023-03-16T09:50:15;19;17;
62591;PMS5003;48659;41.622;2.276;2023-03-16T09:52:52;14;13;
62591;PMS5003;48659;41.622;2.276;2023-03-16T09:55:28;16;10;
62591;PMS5003;48659;41.622;2.276;2023-03-16T09:57:58;7;7;
62591;PMS5003;48659;41.622;2.276;2023-03-16T10:00:29;12;10;
62591;PMS5003;48659;41.622;2.276;2023-03-16T10:03:04;8;7;
62591;PMS5003;48659;41.622;2.276;2023-03-16T10:05:48;12;10;
62591;PMS5003;48659;41.622;2.276;2023-03-16T10:08:23;12;11;
62591;PMS5003;48659;41.622;2.276;2023-03-16T10:11:09;12;12;
62591;PMS5003;48659;41.622;2.276;2023-03-16T10:13:49;8;8;
62591;PMS5003;48659;41.622;2.276;2023-03-16T10:16:21;8;6;
62591;PMS5003;48659;41.622;2.276;2023-03-16T10:18:55;8;8;
62591;PMS5003;48659;41.622;2.276;2023-03-16T10:21:28;17;13;
62591;PMS5003;48659;41.622;2.276;2023-03-16T10:23:59;7;7;
62591;PMS5003;48659;41.622;2.276;2023-03-16T10:26:32;7;7;
62591;PMS5003;48659;41.622;2.276;2023-03-16T10:29:07;4;4;
62591;PMS5003;48659;41.622;2.276;2023-03-16T10:31:38;6;4;
62591;PMS5003;48659;41.622;2.276;2023-03-16T10:34:07;3;3;
62591;PMS5003;48659;41.622;2.276;2023-03-16T10:36:36;6;4;
62591;PMS5003;48659;41.622;2.276;2023-03-16T10:39:14;7;6;
62591;PMS5003;48659;41.622;2.276;2023-03-16T10:41:43;9;9;
62591;PMS5003;48659;41.622;2.276;2023-03-16T10:44:12;13;9;
62591;PMS5003;48659;41.622;2.276;2023-03-16T10:46:42;9;9;
62591;PMS5003;48659;41.622;2.276;2023-03-16T10:49:21;11;11;
62591;PMS5003;48659;41.622;2.276;2023-03-16T10:51:51;14;8;
62591;PMS5003;48659;41.622;2.276;2023-03-16T10:54:23;15;11;
62591;PMS5003;48659;41.622;2.276;2023-03-16T10:56:55;10;10;
62591;PMS5003;48659;41.622;2.276;2023-03-16T10:59:26;13;12;
62591;PMS5003;48659;41.622;2.276;2023-03-16T11:01:56;14;10;
62591;PMS5003;48659;41.622;2.276;2023-03-16T11:04:23;11;9;
62591;PMS5003;48659;41.622;2.276;2023-03-16T11:06:52;10;9;
62591;PMS5003;48659;41.622;2.276;2023-03-16T11:09:22;10;8;
62591;PMS5003;48659;41.622;2.276;2023-03-16T11:11:51;12;11;
62591;PMS5003;48659;41.622;2.276;2023-03-16T11:14:20;11;10;
62591;PMS5003;48659;41.622;2.276;2023-03-16T11:16:54;14;9;
62591;PMS5003;48659;41.622;2.276;2023-03-16T11:19:28;17;16;
62591;PMS5003;48659;41.622;2.276;2023-03-16T11:21:58;10;8;
62591;PMS5003;48659;41.622;2.276;2023-03-16T11:24:31;11;10;
62591;PMS5003;48659;41.622;2.276;2023-03-16T11:27:13;9;9;
62591;PMS5003;48659;41.622;2.276;2023-03-16T11:29:50;14;8;
62591;PMS5003;48659;41.622;2.276;2023-03-16T11:32:25;12;9;
62591;PMS5003;48659;41.622;2.276;2023-03-16T11:34:56;8;7;
62591;PMS5003;48659;41.622;2.276;2023-03-16T11:37:29;8;8;
62591;PMS5003;48659;41.622;2.276;2023-03-16T11:40:12;7;7;
62591;PMS5003;48659;41.622;2.276;2023-03-16T11:42:52;11;11;
62591;PMS5003;48659;41.622;2.276;2023-03-16T11:45:33;10;9;
62591;PMS5003;48659;41.622;2.276;2023-03-16T11:48:15;11;11;
62591;PMS5003;48659;41.622;2.276;2023-03-16T11:50:54;19;13;
62591;PMS5003;48659;41.622;2.276;2023-03-16T11:53:31;21;15;
62591;PMS5003;48659;41.622;2.276;2023-03-16T11:56:16;14;14;
62591;PMS5003;48659;41.622;2.276;2023-03-16T11:58:58;17;15;
62591;PMS5003;48659;41.622;2.276;2023-03-16T12:01:44;15;15;
62591;PMS5003;48659;41.622;2.276;2023-03-16T12:04:22;21;15;
62591;PMS5003;48659;41.622;2.276;2023-03-16T12:07:11;16;13;
62591;PMS5003;48659;41.622;2.276;2023-03-16T12:09:56;16;16;
62591;PMS5003;48659;41.622;2.276;2023-03-16T12:12:38;20;19;
62591;PMS5003;48659;41.622;2.276;2023-03-16T12:15:21;18;13;
62591;PMS5003;48659;41.622;2.276;2023-03-16T12:17:56;17;13;
62591;PMS5003;48659;41.622;2.276;2023-03-16T12:20:30;20;11;
62591;PMS5003;48659;41.622;2.276;2023-03-16T12:23:17;10;10;
62591;PMS5003;48659;41.622;2.276;2023-03-16T12:25:47;13;12;
62591;PMS5003;48659;41.622;2.276;2023-03-16T12:28:20;14;9;
62591;PMS5003;48659;41.622;2.276;2023-03-16T12:30:51;10;10;
62591;PMS5003;48659;41.622;2.276;2023-03-16T12:33:32;9;8;
62591;PMS5003;48659;41.622;2.276;2023-03-16T12:36:21;8;7;
62591;PMS5003;48659;41.622;2.276;2023-03-16T12:39:03;5;5;
62591;PMS5003;48659;41.622;2.276;2023-03-16T12:41:34;8;8;
62591;PMS5003;48659;41.622;2.276;2023-03-16T12:44:13;9;7;
62591;PMS5003;48659;41.622;2.276;2023-03-16T12:46:50;6;6;
62591;PMS5003;48659;41.622;2.276;2023-03-16T12:49:25;9;6;
62591;PMS5003;48659;41.622;2.276;2023-03-16T12:51:58;6;6;
62591;PMS5003;48659;41.622;2.276;2023-03-16T12:54:26;5;4;
62591;PMS5003;48659;41.622;2.276;2023-03-16T12:56:59;6;6;
62591;PMS5003;48659;41.622;2.276;2023-03-16T12:59:35;4;3;
62591;PMS5003;48659;41.622;2.276;2023-03-16T13:02:07;8;6;
62591;PMS5003;48659;41.622;2.276;2023-03-16T13:04:43;8;3;
62591;PMS5003;48659;41.622;2.276;2023-03-16T13:07:16;5;5;
62591;PMS5003;48659;41.622;2.276;2023-03-16T13:09:50;4;4;
62591;PMS5003;48659;41.622;2.276;2023-03-16T13:12:22;3;3;
62591;PMS5003;48659;41.622;2.276;2023-03-16T13:14:51;3;3;
62591;PMS5003;48659;41.622;2.276;2023-03-16T13:17:21;6;4;
62591;PMS5003;48659;41.622;2.276;2023-03-16T13:20:01;6;4;
62591;PMS5003;48659;41.622;2.276;2023-03-16T13:22:42;3;3;
62591;PMS5003;48659;41.622;2.276;2023-03-16T13:25:13;5;3;
62591;PMS5003;48659;41.622;2.276;2023-03-16T13:27:44;5;3;
62591;PMS5003;48659;41.622;2.276;2023-03-16T13:30:17;3;2;
62591;PMS5003;48659;41.622;2.276;2023-03-16T13:32:48;3;3;
62591;PMS5003;48659;41.622;2.276;2023-03-16T13:35:19;3;3;
62591;PMS5003;48659;41.622;2.276;2023-03-16T13:37:51;4;2;
62591;PMS5003;48659;41.622;2.276;2023-03-16T13:40:19;3;3;
62591;PMS5003;48659;41.622;2.276;2023-03-16T13:42:49;5;3;
62591;PMS5003;48659;41.622;2.276;2023-03-16T13:45:19;4;4;
62591;PMS5003;48659;41.622;2.276;2023-03-16T13:47:49;4;4;
62591;PMS5003;48659;41.622;2.276;2023-03-16T13:50:17;3;3;
62591;PMS5003;48659;41.622;2.276;2023-03-16T13:52:56;4;4;
62591;PMS5003;48659;41.622;2.276;2023-03-16T13:55:26;8;5;
62591;PMS5003;48659;41.622;2.276;2023-03-16T13:57:58;4;2;
62591;PMS5003;48659;41.622;2.276;2023-03-16T14:00:28;6;3;
62591;PMS5003;48659;41.622;2.276;2023-03-16T14:02:59;3;3;
62591;PMS5003;48659;41.622;2.276;2023-03-16T14:05:37;4;3;
62591;PMS5003;48659;41.622;2.276;2023-03-16T14:08:11;3;2;
62591;PMS5003;48659;41.622;2.276;2023-03-16T14:10:42;3;3;
62591;PMS5003;48659;41.622;2.276;2023-03-16T14:13:21;5;3;
62591;PMS5003;48659;41.622;2.276;2023-03-16T14:15:58;3;3;
62591;PMS5003;48659;41.622;2.276;2023-03-16T14:18:28;4;4;
62591;PMS5003;48659;41.622;2.276;2023-03-16T14:20:59;2;2;
62591;PMS5003;48659;41.622;2.276;2023-03-16T14:23:33;2;2;
62591;PMS5003;48659;41.622;2.276;2023-03-16T14:26:03;5;3;
62591;PMS5003;48659;41.622;2.276;2023-03-16T14:28:32;8;7;
62591;PMS5003;48659;41.622;2.276;2023-03-16T14:31:01;3;3;
62591;PMS5003;48659;41.622;2.276;2023-03-16T14:33:31;3;3;
62591;PMS5003;48659;41.622;2.276;2023-03-16T14:36:06;8;4;
62591;PMS5003;48659;41.622;2.276;2023-03-16T14:38:37;3;2;
62591;PMS5003;48659;41.622;2.276;2023-03-16T14:41:05;2;2;
62591;PMS5003;48659;41.622;2.276;2023-03-16T14:43:44;1;1;
62591;PMS5003;48659;41.622;2.276;2023-03-16T14:46:16;3;3;
62591;PMS5003;48659;41.622;2.276;2023-03-16T14:48:50;3;3;
62591;PMS5003;48659;41.622;2.276;2023-03-16T14:51:18;5;5;
62591;PMS5003;48659;41.622;2.276;2023-03-16T14:53:45;11;8;
62591;PMS5003;48659;41.622;2.276;2023-03-16T14:56:13;6;3;
62591;PMS5003;48659;41.622;2.276;2023-03-16T14:58:39;4;4;
62591;PMS5003;48659;41.622;2.276;2023-03-16T15:01:08;1;1;
62591;PMS5003;48659;41.622;2.276;2023-03-16T15:03:41;3;3;
62591;PMS5003;48659;41.622;2.276;2023-03-16T15:06:11;5;3;
62591;PMS5003;48659;41.622;2.276;2023-03-16T15:08:40;6;3;
62591;PMS5003;48659;41.622;2.276;2023-03-16T15:11:11;3;3;
62591;PMS5003;48659;41.622;2.276;2023-03-16T15:13:39;4;2;
62591;PMS5003;48659;41.622;2.276;2023-03-16T15:16:08;4;4;
62591;PMS5003;48659;41.622;2.276;2023-03-16T15:18:37;2;2;
62591;PMS5003;48659;41.622;2.276;2023-03-16T15:21:08;2;2;
62591;PMS5003;48659;41.622;2.276;2023-03-16T15:23:38;2;2;
62591;PMS5003;48659;41.622;2.276;2023-03-16T15:26:07;6;4;
62591;PMS5003;48659;41.622;2.276;2023-03-16T15:28:34;2;2;
62591;PMS5003;48659;41.622;2.276;2023-03-16T15:31:03;3;3;
62591;PMS5003;48659;41.622;2.276;2023-03-16T15:33:31;5;2;
62591;PMS5003;48659;41.622;2.276;2023-03-16T15:35:59;2;2;
62591;PMS5003;48659;41.622;2.276;2023-03-16T15:38:29;4;2;
62591;PMS5003;48659;41.622;2.276;2023-03-16T15:40:58;4;3;
62591;PMS5003;48659;41.622;2.276;2023-03-16T15:43:27;3;3;
62591;PMS5003;48659;41.622;2.276;2023-03-16T15:45:56;3;3;
62591;PMS5003;48659;41.622;2.276;2023-03-16T15:48:24;2;2;
62591;PMS5003;48659;41.622;2.276;2023-03-16T15:50:53;4;2;
62591;PMS5003;48659;41.622;2.276;2023-03-16T15:53:23;2;1;
62591;PMS5003;48659;41.622;2.276;2023-03-16T15:55:54;3;2;
62591;PMS5003;48659;41.622;2.276;2023-03-16T15:58:25;3;3;
62591;PMS5003;48659;41.622;2.276;2023-03-16T16:00:53;2;1;
62591;PMS5003;48659;41.622;2.276;2023-03-16T16:03:23;3;2;
62591;PMS5003;48659;41.622;2.276;2023-03-16T16:05:52;2;2;
62591;PMS5003;48659;41.622;2.276;2023-03-16T16:08:20;3;1;
62591;PMS5003;48659;41.622;2.276;2023-03-16T16:10:48;3;3;
62591;PMS5003;48659;41.622;2.276;2023-03-16T16:13:18;1;1;
62591;PMS5003;48659;41.622;2.276;2023-03-16T16:15:50;1;1;
62591;PMS5003;48659;41.622;2.276;2023-03-16T16:18:26;3;2;
62591;PMS5003;48659;41.622;2.276;2023-03-16T16:20:55;3;3;
62591;PMS5003;48659;41.622;2.276;2023-03-16T16:23:24;2;1;
62591;PMS5003;48659;41.622;2.276;2023-03-16T16:25:52;1;1;
62591;PMS5003;48659;41.622;2.276;2023-03-16T16:28:22;3;3;
62591;PMS5003;48659;41.622;2.276;2023-03-16T16:30:51;2;2;
62591;PMS5003;48659;41.622;2.276;2023-03-16T16:33:19;1;1;
62591;PMS5003;48659;41.622;2.276;2023-03-16T16:35:47;2;2;
62591;PMS5003;48659;41.622;2.276;2023-03-16T16:38:15;2;2;
62591;PMS5003;48659;41.622;2.276;2023-03-16T16:40:43;4;3;
62591;PMS5003;48659;41.622;2.276;2023-03-16T16:43:13;0;0;
62591;PMS5003;48659;41.622;2.276;2023-03-16T16:45:51;2;2;
62591;PMS5003;48659;41.622;2.276;2023-03-16T16:48:24;2;2;
62591;PMS5003;48659;41.622;2.276;2023-03-16T16:50:56;3;3;